createdAt,value
2022-09-18T00:00:46.228Z,957.24
2022-09-18T00:15:48.504Z,957.19
2022-09-18T00:30:50.771Z,957.14
2022-09-18T00:45:52.980Z,957.1
2022-09-18T01:00:55.312Z,957.19
2022-09-18T01:15:57.695Z,957.23
2022-09-18T01:31:00.193Z,957.27
2022-09-18T01:46:02.416Z,957.31
2022-09-18T02:01:04.638Z,957.49
2022-09-18T02:16:07.050Z,957.56
2022-09-18T02:31:09.358Z,957.8
2022-09-18T02:46:11.729Z,957.84
2022-09-18T03:01:14.076Z,957.96
2022-09-18T03:16:16.545Z,958.1
2022-09-18T03:31:19.039Z,958.2
2022-09-18T03:46:21.376Z,958.2
2022-09-18T04:01:23.634Z,958.3
2022-09-18T04:16:25.966Z,958.43
2022-09-18T04:31:28.426Z,958.53
2022-09-18T04:46:30.758Z,958.54
2022-09-18T05:01:33.102Z,958.59
2022-09-18T05:16:35.646Z,958.64
2022-09-18T05:31:38.008Z,958.69
2022-09-18T05:46:40.356Z,958.79
2022-09-18T06:01:46.965Z,958.88
2022-09-18T06:16:49.695Z,959.06
2022-09-18T06:31:52.002Z,959.07
2022-09-18T06:46:54.363Z,959.23
2022-09-18T07:01:56.711Z,959.24
2022-09-18T07:16:59.101Z,959.36
2022-09-18T07:32:01.811Z,959.47
2022-09-18T07:47:04.359Z,959.6
2022-09-18T08:02:06.756Z,959.67
2022-09-18T08:17:09.136Z,959.77
2022-09-18T08:32:11.358Z,959.76
2022-09-18T08:47:13.564Z,959.98
2022-09-18T09:02:15.801Z,959.98
2022-09-18T09:17:18.111Z,960.08
2022-09-18T09:32:20.344Z,960.1
2022-09-18T09:47:22.599Z,960.16
2022-09-18T10:02:25.081Z,960.24
2022-09-18T10:17:27.393Z,960.24
2022-09-18T10:32:29.608Z,960.29
2022-09-18T10:47:31.878Z,960.22
2022-09-18T11:02:34.137Z,960.3
2022-09-18T11:17:36.466Z,960.34
2022-09-18T11:32:39.020Z,960.36
2022-09-18T11:47:41.249Z,960.21
2022-09-18T12:02:43.640Z,960.24
2022-09-18T12:17:44.713Z,960.45
2022-09-18T12:32:46.936Z,960.22
2022-09-18T12:47:49.804Z,960.03
2022-09-18T13:02:52.014Z,959.99
2022-09-18T13:17:55.142Z,960.14
2022-09-18T13:32:57.413Z,960.22
2022-09-18T13:47:59.577Z,960.18
2022-09-18T14:03:01.970Z,960.38
2022-09-18T14:18:04.295Z,960.45
2022-09-18T14:33:06.547Z,960.46
2022-09-18T14:48:11.745Z,960.58
2022-09-18T15:03:16.422Z,960.59
2022-09-18T15:18:18.792Z,960.63
2022-09-18T15:33:21.097Z,960.62
2022-09-18T15:48:23.332Z,960.71
2022-09-18T16:03:25.575Z,960.57
2022-09-18T16:18:27.852Z,960.36
2022-09-18T16:33:30.323Z,960.46
2022-09-18T16:48:32.555Z,960.32
2022-09-18T17:03:34.784Z,960.18
2022-09-18T17:18:37.073Z,960.01
2022-09-18T17:33:39.275Z,959.94
2022-09-18T17:48:41.590Z,959.81
2022-09-18T18:03:43.895Z,959.5
2022-09-18T18:18:46.152Z,959.35
2022-09-18T18:33:48.394Z,959.11
2022-09-18T18:48:50.637Z,958.95
2022-09-18T19:03:52.950Z,958.71
2022-09-18T19:18:55.380Z,958.49
2022-09-18T19:33:57.657Z,958.24
2022-09-18T19:48:59.891Z,958.13
2022-09-18T20:04:02.163Z,958.01
2022-09-18T20:19:04.553Z,957.96
2022-09-18T20:34:06.946Z,957.76
2022-09-18T20:49:09.295Z,957.75
2022-09-18T21:04:11.534Z,957.44
2022-09-18T21:19:13.740Z,957.27
2022-09-18T21:34:16.050Z,957.06
2022-09-18T21:49:18.242Z,956.72
2022-09-18T22:04:20.483Z,956.68
2022-09-18T22:19:22.828Z,956.48
2022-09-18T22:34:25.263Z,956.18
2022-09-18T22:49:27.528Z,955.97
2022-09-18T23:04:29.848Z,955.79
2022-09-18T23:19:32.138Z,955.51
2022-09-18T23:34:34.408Z,955.47
2022-09-18T23:49:36.599Z,955.33
